createdAt,value
2023-08-17T00:01:17.668Z,94519.91
2023-08-17T00:03:44.323Z,94515.19
2023-08-17T00:06:11.087Z,94522.69
2023-08-17T00:08:37.632Z,94524.50
2023-08-17T00:11:04.664Z,94521.72
2023-08-17T00:13:31.253Z,94521.28
2023-08-17T00:15:58.044Z,94519.75
2023-08-17T00:18:24.724Z,94513.59
2023-08-17T00:20:51.295Z,94520.09
2023-08-17T00:23:17.852Z,94520.09
2023-08-17T00:25:44.417Z,94523.72
2023-08-17T00:28:11.027Z,94527.78
2023-08-17T00:30:38.864Z,94518.38
2023-08-17T00:33:05.817Z,94518.19
2023-08-17T00:35:33.682Z,94509.28
2023-08-17T00:38:01.033Z,94515.75
2023-08-17T00:40:27.654Z,94509.81
2023-08-17T00:42:54.256Z,94503.00
2023-08-17T00:45:22.490Z,94499.09
2023-08-17T00:47:49.187Z,94507.81
2023-08-17T00:50:16.789Z,94500.91
2023-08-17T00:52:43.816Z,94499.19
2023-08-17T00:55:12.237Z,94487.50
2023-08-17T00:57:38.866Z,94495.78
2023-08-17T01:00:07.087Z,94500.31
2023-08-17T01:02:34.312Z,94502.31
2023-08-17T01:05:01.656Z,94510.97
2023-08-17T01:07:28.739Z,94507.38
2023-08-17T01:09:55.745Z,94508.22
2023-08-17T01:12:33.203Z,94510.47
2023-08-17T01:15:18.484Z,94498.63
2023-08-17T01:17:51.122Z,94510.97
2023-08-17T01:20:18.960Z,94510.69
2023-08-17T01:22:48.723Z,94507.66
2023-08-17T01:25:15.286Z,94504.81
2023-08-17T01:27:46.599Z,94499.97
2023-08-17T01:30:18.514Z,94503.88
2023-08-17T01:32:57.919Z,94506.69
2023-08-17T01:35:47.610Z,94510.13
2023-08-17T01:38:19.287Z,94507.06
2023-08-17T01:40:50.745Z,94504.44
2023-08-17T01:43:17.630Z,94510.34
2023-08-17T01:45:45.014Z,94507.84
2023-08-17T01:48:11.849Z,94516.84
2023-08-17T01:50:38.437Z,94514.09
2023-08-17T01:53:05.188Z,94512.59
2023-08-17T01:55:33.292Z,94516.22
2023-08-17T01:58:00.170Z,94517.69
2023-08-17T02:00:26.808Z,94523.72
2023-08-17T02:02:53.374Z,94520.94
2023-08-17T02:05:20.004Z,94521.03
2023-08-17T02:07:46.674Z,94516.97
2023-08-17T02:10:13.245Z,94518.78
2023-08-17T02:12:39.789Z,94513.66
2023-08-17T02:15:06.926Z,94516.34
2023-08-17T02:17:33.602Z,94513.25
2023-08-17T02:20:00.278Z,94507.00
2023-08-17T02:22:27.086Z,94499.72
2023-08-17T02:24:55.276Z,94501.25
2023-08-17T02:27:22.920Z,94493.72
2023-08-17T02:29:49.542Z,94500.88
2023-08-17T02:32:16.099Z,94501.25
2023-08-17T02:34:42.729Z,94495.28
2023-08-17T02:37:09.285Z,94493.78
2023-08-17T02:39:36.163Z,94498.81
2023-08-17T02:42:02.705Z,94493.28
2023-08-17T02:44:31.540Z,94488.19
2023-08-17T02:46:58.077Z,94490.28
2023-08-17T02:49:24.708Z,94488.47
2023-08-17T02:51:51.323Z,94475.50
2023-08-17T02:54:17.903Z,94481.84
2023-08-17T02:56:44.476Z,94481.13
2023-08-17T02:59:11.045Z,94466.38
2023-08-17T03:01:37.665Z,94468.88
2023-08-17T03:04:04.459Z,94471.91
2023-08-17T03:06:31.033Z,94458.19
2023-08-17T03:08:57.614Z,94468.78
2023-08-17T03:11:24.196Z,94454.22
2023-08-17T03:13:50.817Z,94458.19
2023-08-17T03:16:17.483Z,94450.94
2023-08-17T03:18:45.648Z,94447.31
2023-08-17T03:21:13.030Z,94451.94
2023-08-17T03:23:39.683Z,94451.25
2023-08-17T03:26:06.267Z,94449.97
2023-08-17T03:28:32.858Z,94450.06
2023-08-17T03:30:59.536Z,94446.56
2023-08-17T03:33:26.287Z,94454.88
2023-08-17T03:35:52.957Z,94448.13
2023-08-17T03:38:19.677Z,94447.09
2023-08-17T03:40:50.135Z,94454.50
2023-08-17T03:43:16.827Z,94441.94
2023-08-17T03:45:43.953Z,94442.00
2023-08-17T03:48:11.084Z,94440.78
2023-08-17T03:50:37.752Z,94447.94
2023-08-17T03:53:05.732Z,94445.53
2023-08-17T03:55:32.433Z,94454.19
2023-08-17T03:57:59.018Z,94447.59
2023-08-17T04:00:25.572Z,94451.56
2023-08-17T04:02:57.820Z,94459.13
2023-08-17T04:05:24.399Z,94460.75
2023-08-17T04:07:51.030Z,94463.81
2023-08-17T04:10:17.606Z,94468.19
2023-08-17T04:12:44.347Z,94461.88
2023-08-17T04:15:11.129Z,94465.00
2023-08-17T04:17:37.713Z,94460.53
2023-08-17T04:20:07.766Z,94457.84
2023-08-17T04:22:34.450Z,94461.56
2023-08-17T04:25:01.041Z,94465.94
2023-08-17T04:27:27.984Z,94454.63
2023-08-17T04:29:54.928Z,94463.25
2023-08-17T04:32:22.105Z,94475.06
2023-08-17T04:34:49.323Z,94466.72
2023-08-17T04:37:16.803Z,94476.47
2023-08-17T04:39:44.718Z,94467.41
2023-08-17T04:42:17.162Z,94470.97
2023-08-17T04:44:44.587Z,94463.16
2023-08-17T04:47:11.601Z,94465.09
2023-08-17T04:49:38.899Z,94466.28
2023-08-17T04:52:05.888Z,94468.00
2023-08-17T04:54:32.660Z,94476.63
2023-08-17T04:56:59.225Z,94474.50
2023-08-17T04:59:25.963Z,94474.19
2023-08-17T05:01:53.288Z,94467.00
2023-08-17T05:04:19.864Z,94465.44
2023-08-17T05:06:46.478Z,94468.97
2023-08-17T05:09:13.302Z,94468.63
2023-08-17T05:11:41.339Z,94466.84
2023-08-17T05:14:08.205Z,94467.25
2023-08-17T05:16:34.979Z,94468.38
2023-08-17T05:19:01.744Z,94468.94
2023-08-17T05:21:29.036Z,94470.34
2023-08-17T05:23:55.675Z,94467.94
2023-08-17T05:26:23.233Z,94473.88
2023-08-17T05:28:49.802Z,94474.50
2023-08-17T05:31:16.627Z,94487.38
2023-08-17T05:33:48.165Z,94484.97
2023-08-17T05:36:15.562Z,94486.25
2023-08-17T05:38:42.189Z,94483.91
2023-08-17T05:41:08.793Z,94490.44
2023-08-17T05:43:35.407Z,94489.22
2023-08-17T05:46:02.160Z,94488.47
2023-08-17T05:48:28.764Z,94490.00
2023-08-17T05:50:57.408Z,94485.94
2023-08-17T05:53:23.970Z,94483.25
2023-08-17T05:55:51.604Z,94485.63
2023-08-17T05:58:18.282Z,94478.44
2023-08-17T06:00:44.861Z,94494.78
2023-08-17T06:03:11.841Z,94485.53
2023-08-17T06:05:38.657Z,94488.47
2023-08-17T06:08:05.589Z,94481.13
2023-08-17T06:10:32.117Z,94476.41
2023-08-17T06:12:59.029Z,94478.19
2023-08-17T06:15:25.945Z,94478.44
2023-08-17T06:17:52.605Z,94479.66
2023-08-17T06:20:19.615Z,94476.19
2023-08-17T06:22:49.322Z,94481.09
2023-08-17T06:25:16.077Z,94484.38
2023-08-17T06:27:43.198Z,94485.97
2023-08-17T06:30:10.422Z,94488.66
2023-08-17T06:32:37.018Z,94485.78
2023-08-17T06:35:03.922Z,94478.41
2023-08-17T06:37:30.525Z,94480.84
2023-08-17T06:39:57.076Z,94481.56
2023-08-17T06:42:23.650Z,94480.91
2023-08-17T06:44:50.302Z,94483.47
2023-08-17T06:47:16.864Z,94481.81
2023-08-17T06:49:43.525Z,94489.28
2023-08-17T06:52:10.175Z,94489.75
2023-08-17T06:54:36.846Z,94496.06
2023-08-17T06:57:03.403Z,94495.41
2023-08-17T06:59:29.989Z,94485.19
2023-08-17T07:01:57.996Z,94495.59
2023-08-17T07:04:24.647Z,94491.16
2023-08-17T07:06:51.615Z,94488.47
2023-08-17T07:09:18.260Z,94495.53
2023-08-17T07:11:44.943Z,94484.31
2023-08-17T07:14:11.529Z,94489.53
2023-08-17T07:16:38.161Z,94496.69
2023-08-17T07:19:05.412Z,94486.25
2023-08-17T07:21:32.118Z,94489.63
2023-08-17T07:23:58.661Z,94496.97
2023-08-17T07:26:25.297Z,94494.78
2023-08-17T07:28:51.847Z,94491.19
2023-08-17T07:31:18.465Z,94498.03
2023-08-17T07:33:45.049Z,94492.69
2023-08-17T07:36:11.683Z,94496.94
2023-08-17T07:38:38.234Z,94503.81
2023-08-17T07:41:04.828Z,94502.16
2023-08-17T07:43:31.472Z,94493.97
2023-08-17T07:45:58.500Z,94503.31
2023-08-17T07:48:25.232Z,94497.94
2023-08-17T07:50:53.039Z,94502.00
2023-08-17T07:53:20.470Z,94497.34
2023-08-17T07:55:47.148Z,94499.81
2023-08-17T07:58:14.063Z,94498.44
2023-08-17T08:00:40.694Z,94496.13
2023-08-17T08:03:07.317Z,94493.50
2023-08-17T08:05:33.997Z,94487.78
2023-08-17T08:08:00.651Z,94490.72
2023-08-17T08:10:28.830Z,94490.53
2023-08-17T08:12:56.066Z,94491.88
2023-08-17T08:15:22.729Z,94487.06
2023-08-17T08:17:49.409Z,94482.75
2023-08-17T08:20:16.054Z,94490.72
2023-08-17T08:22:42.685Z,94484.97
2023-08-17T08:25:09.267Z,94481.06
2023-08-17T08:27:35.835Z,94483.38
2023-08-17T08:30:02.384Z,94489.09
2023-08-17T08:32:30.844Z,94483.69
2023-08-17T08:34:57.601Z,94487.56
2023-08-17T08:37:25.225Z,94482.69
2023-08-17T08:39:56.612Z,94477.13
2023-08-17T08:42:26.032Z,94482.00
2023-08-17T08:44:52.682Z,94487.31
2023-08-17T08:47:19.762Z,94494.31
2023-08-17T08:50:03.325Z,94493.50
2023-08-17T08:52:41.624Z,94493.22
2023-08-17T08:55:18.724Z,94501.41
2023-08-17T08:57:51.791Z,94489.09
2023-08-17T09:00:19.401Z,94491.13
2023-08-17T09:02:46.969Z,94487.72
2023-08-17T09:05:15.096Z,94497.09
2023-08-17T09:07:43.574Z,94490.16
2023-08-17T09:10:11.625Z,94485.78
2023-08-17T09:12:41.295Z,94488.88
2023-08-17T09:15:09.012Z,94476.91
2023-08-17T09:17:35.756Z,94482.25
2023-08-17T09:20:02.589Z,94483.09
2023-08-17T09:22:40.256Z,94482.00
2023-08-17T09:25:07.849Z,94483.47
2023-08-17T09:27:34.488Z,94473.78
2023-08-17T09:30:08.259Z,94463.44
2023-08-17T09:32:35.228Z,94472.19
2023-08-17T09:35:06.625Z,94475.75
2023-08-17T09:37:34.221Z,94464.09
2023-08-17T09:40:01.513Z,94475.44
2023-08-17T09:42:29.162Z,94462.75
2023-08-17T09:44:56.690Z,94453.94
2023-08-17T09:47:23.981Z,94455.94
2023-08-17T09:49:53.161Z,94460.13
2023-08-17T09:52:25.279Z,94445.44
2023-08-17T09:54:53.447Z,94454.41
2023-08-17T09:57:22.927Z,94456.34
2023-08-17T09:59:54.066Z,94449.53
2023-08-17T10:02:25.055Z,94455.56
2023-08-17T10:04:58.872Z,94455.97
2023-08-17T10:07:34.330Z,94451.94
2023-08-17T10:10:04.333Z,94461.09
2023-08-17T10:12:37.272Z,94461.63
2023-08-17T10:15:11.820Z,94447.84
2023-08-17T10:17:55.932Z,94451.31
2023-08-17T10:20:24.348Z,94457.47
2023-08-17T10:23:02.038Z,94455.44
2023-08-17T10:25:28.800Z,94458.31
2023-08-17T10:28:00.067Z,94446.16
2023-08-17T10:30:27.067Z,94461.72
2023-08-17T10:32:53.711Z,94465.88
2023-08-17T10:35:20.648Z,94463.63
2023-08-17T10:37:47.690Z,94457.16
2023-08-17T10:40:15.765Z,94462.00
2023-08-17T10:42:42.622Z,94453.72
2023-08-17T10:45:30.795Z,94464.03
2023-08-17T10:48:01.237Z,94462.63
2023-08-17T10:50:27.870Z,94478.78
2023-08-17T10:52:55.182Z,94476.22
2023-08-17T10:55:42.000Z,94469.34
2023-08-17T10:58:15.092Z,94483.69
2023-08-17T11:00:43.252Z,94473.72
2023-08-17T11:03:18.128Z,94480.88
2023-08-17T11:05:56.771Z,94478.91
2023-08-17T11:08:34.528Z,94474.69
2023-08-17T11:11:10.629Z,94468.56
2023-08-17T11:13:39.962Z,94479.13
2023-08-17T11:16:08.508Z,94480.97
2023-08-17T11:18:35.834Z,94491.75
2023-08-17T11:21:10.406Z,94491.47
2023-08-17T11:23:38.227Z,94479.41
2023-08-17T11:26:05.536Z,94479.91
2023-08-17T11:28:42.533Z,94506.84
2023-08-17T11:31:11.762Z,94506.75
2023-08-17T11:33:40.870Z,94507.13
2023-08-17T11:36:10.753Z,94484.25
2023-08-17T11:38:42.194Z,94469.84
2023-08-17T11:41:10.108Z,94460.84
2023-08-17T11:43:38.491Z,94449.81
2023-08-17T11:46:06.279Z,94460.59
2023-08-17T11:51:02.989Z,94446.19
2023-08-17T11:53:37.682Z,94446.84
2023-08-17T11:56:07.089Z,94469.22
2023-08-17T11:58:45.473Z,94481.22
2023-08-17T12:01:14.085Z,94481.94
2023-08-17T12:03:42.248Z,94473.75
2023-08-17T12:06:10.225Z,94464.28
2023-08-17T12:08:36.876Z,94469.97
2023-08-17T12:11:04.352Z,94466.78
2023-08-17T12:13:35.624Z,94472.84
2023-08-17T12:16:02.947Z,94484.75
2023-08-17T12:18:30.061Z,94493.28
2023-08-17T12:20:57.015Z,94484.69
2023-08-17T12:23:23.701Z,94481.91
2023-08-17T12:25:56.990Z,94466.00
2023-08-17T12:28:25.255Z,94467.75
2023-08-17T12:31:03.359Z,94459.41
2023-08-17T12:33:30.280Z,94455.44
2023-08-17T12:35:57.180Z,94442.50
2023-08-17T12:38:26.303Z,94433.59
2023-08-17T12:40:53.328Z,94429.34
2023-08-17T12:43:20.043Z,94423.59
2023-08-17T12:45:46.623Z,94415.88
2023-08-17T12:48:13.661Z,94410.94
2023-08-17T12:50:43.861Z,94406.31
2023-08-17T12:53:10.853Z,94407.34
2023-08-17T12:55:37.459Z,94406.72
2023-08-17T12:58:04.233Z,94401.75
2023-08-17T13:00:30.807Z,94406.41
2023-08-17T13:02:57.443Z,94404.06
2023-08-17T13:05:24.096Z,94411.13
2023-08-17T13:07:50.708Z,94412.22
2023-08-17T13:10:17.335Z,94409.41
2023-08-17T13:12:43.941Z,94403.03
2023-08-17T13:15:10.627Z,94412.13
2023-08-17T13:17:37.241Z,94396.28
2023-08-17T13:20:06.282Z,94401.91
2023-08-17T13:22:33.591Z,94393.72
2023-08-17T13:25:00.232Z,94394.69
2023-08-17T13:27:26.831Z,94394.28
2023-08-17T13:29:53.482Z,94400.09
2023-08-17T13:32:20.252Z,94400.88
2023-08-17T13:34:46.962Z,94411.19
2023-08-17T13:37:13.535Z,94405.31
2023-08-17T13:39:40.106Z,94398.53
2023-08-17T13:42:06.795Z,94392.16
2023-08-17T13:44:33.350Z,94379.00
2023-08-17T13:46:59.935Z,94373.69
2023-08-17T13:49:26.618Z,94379.47
2023-08-17T13:51:53.256Z,94368.34
2023-08-17T13:54:19.836Z,94373.69
2023-08-17T13:56:46.599Z,94372.19
2023-08-17T13:59:13.154Z,94379.00
2023-08-17T14:01:39.859Z,94383.03
2023-08-17T14:04:12.375Z,94379.94
2023-08-17T14:06:39.844Z,94389.69
2023-08-17T14:09:06.487Z,94383.28
2023-08-17T14:11:33.205Z,94392.84
2023-08-17T14:13:59.804Z,94389.78
2023-08-17T14:16:26.478Z,94388.53
2023-08-17T14:18:53.600Z,94391.84
2023-08-17T14:21:20.165Z,94389.81
2023-08-17T14:23:47.706Z,94390.84
2023-08-17T14:26:14.337Z,94389.78
2023-08-17T14:28:44.526Z,94388.00
2023-08-17T14:31:16.687Z,94395.44
2023-08-17T14:33:43.300Z,94390.28
2023-08-17T14:36:09.858Z,94392.56
2023-08-17T14:38:37.037Z,94386.66
2023-08-17T14:41:05.521Z,94387.72
2023-08-17T14:43:32.129Z,94371.78
2023-08-17T14:45:59.293Z,94370.88
2023-08-17T14:48:26.094Z,94359.50
2023-08-17T14:50:52.967Z,94354.97
2023-08-17T14:53:19.560Z,94350.41
2023-08-17T14:55:49.995Z,94340.03
2023-08-17T14:58:17.221Z,94337.63
2023-08-17T15:00:43.928Z,94330.38
2023-08-17T15:03:10.668Z,94333.03
2023-08-17T15:05:38.447Z,94334.84
2023-08-17T15:08:05.461Z,94335.16
2023-08-17T15:10:33.637Z,94325.22
2023-08-17T15:13:00.212Z,94331.72
2023-08-17T15:15:26.808Z,94330.66
2023-08-17T15:17:53.442Z,94338.22
2023-08-17T15:20:20.062Z,94342.66
2023-08-17T15:22:46.647Z,94351.88
2023-08-17T15:25:13.223Z,94350.66
2023-08-17T15:27:39.823Z,94352.09
2023-08-17T15:30:07.013Z,94358.19
2023-08-17T15:32:33.749Z,94364.19
2023-08-17T15:35:00.440Z,94361.66
2023-08-17T15:37:27.485Z,94382.56
2023-08-17T15:39:54.428Z,94400.00
2023-08-17T15:42:20.989Z,94409.69
2023-08-17T15:44:47.650Z,94411.06
2023-08-17T15:47:14.230Z,94419.25
2023-08-17T15:49:40.776Z,94396.34
2023-08-17T15:52:08.894Z,94404.09
2023-08-17T15:54:37.544Z,94415.22
2023-08-17T15:57:06.845Z,94433.50
2023-08-17T15:59:33.910Z,94430.78
2023-08-17T16:02:00.473Z,94432.19
2023-08-17T16:04:27.039Z,94426.03
2023-08-17T16:06:53.754Z,94416.91
2023-08-17T16:09:22.208Z,94416.22
2023-08-17T16:11:48.991Z,94412.66
2023-08-17T16:14:15.535Z,94413.91
2023-08-17T16:16:42.124Z,94420.91
2023-08-17T16:19:09.149Z,94419.06
2023-08-17T16:21:38.049Z,94417.84
2023-08-17T16:24:05.413Z,94399.91
2023-08-17T16:26:34.619Z,94395.13
2023-08-17T16:29:01.633Z,94394.94
2023-08-17T16:31:28.387Z,94394.63
2023-08-17T16:33:54.960Z,94375.13
2023-08-17T16:36:21.596Z,94377.28
2023-08-17T16:38:49.269Z,94380.53
2023-08-17T16:41:21.643Z,94378.81
2023-08-17T16:43:48.847Z,94373.88
2023-08-17T16:46:16.028Z,94385.66
2023-08-17T16:48:42.861Z,94397.75
2023-08-17T16:51:09.412Z,94405.28
2023-08-17T16:53:35.938Z,94422.63
2023-08-17T16:56:02.874Z,94448.94
2023-08-17T16:58:29.477Z,94442.34
2023-08-17T17:00:56.104Z,94436.75
2023-08-17T17:03:22.709Z,94443.28
2023-08-17T17:05:49.258Z,94439.13
2023-08-17T17:08:15.804Z,94434.78
2023-08-17T17:10:42.364Z,94441.94
2023-08-17T17:13:08.986Z,94451.88
2023-08-17T17:15:35.685Z,94450.19
2023-08-17T17:18:02.302Z,94435.50
2023-08-17T17:20:28.946Z,94431.91
2023-08-17T17:22:55.542Z,94439.66
2023-08-17T17:25:22.088Z,94445.41
2023-08-17T17:27:48.808Z,94447.84
2023-08-17T17:30:15.398Z,94445.84
2023-08-17T17:32:42.011Z,94437.97
2023-08-17T17:35:08.593Z,94430.53
2023-08-17T17:37:35.109Z,94422.34
2023-08-17T17:40:01.799Z,94417.69
2023-08-17T17:42:28.371Z,94419.88
2023-08-17T17:44:57.927Z,94419.56
2023-08-17T17:47:26.281Z,94421.25
2023-08-17T17:49:53.097Z,94418.78
2023-08-17T17:52:19.648Z,94420.31
2023-08-17T17:54:46.270Z,94416.00
2023-08-17T17:57:12.793Z,94416.28
2023-08-17T17:59:39.357Z,94417.69
2023-08-17T18:02:06.757Z,94417.78
2023-08-17T18:04:33.411Z,94410.94
2023-08-17T18:06:59.987Z,94404.94
2023-08-17T18:09:27.488Z,94398.88
2023-08-17T18:11:54.146Z,94414.47
2023-08-17T18:14:20.793Z,94419.09
2023-08-17T18:16:47.460Z,94418.72
2023-08-17T18:19:14.152Z,94414.84
2023-08-17T18:21:40.737Z,94417.63
2023-08-17T18:24:08.349Z,94423.16
2023-08-17T18:26:34.949Z,94411.09
2023-08-17T18:29:02.491Z,94412.16
2023-08-17T18:31:29.052Z,94408.34
2023-08-17T18:33:55.755Z,94415.22
2023-08-17T18:36:22.462Z,94406.53
2023-08-17T18:38:49.114Z,94421.31
2023-08-17T18:41:15.977Z,94421.56
2023-08-17T18:43:42.554Z,94428.81
2023-08-17T18:46:09.135Z,94427.31
2023-08-17T18:48:35.796Z,94428.28
2023-08-17T18:51:02.532Z,94435.16
2023-08-17T18:53:29.124Z,94427.31
2023-08-17T18:55:55.676Z,94427.47
2023-08-17T18:58:22.220Z,94423.50
2023-08-17T19:00:48.898Z,94427.69
2023-08-17T19:03:15.619Z,94427.88
2023-08-17T19:05:42.306Z,94434.25
2023-08-17T19:08:08.911Z,94432.03
2023-08-17T19:10:35.462Z,94434.94
2023-08-17T19:13:01.986Z,94443.38
2023-08-17T19:15:28.556Z,94438.13
2023-08-17T19:17:55.158Z,94441.69
2023-08-17T19:20:21.773Z,94432.41
2023-08-17T19:22:48.324Z,94435.72
2023-08-17T19:25:14.952Z,94435.19
2023-08-17T19:27:41.601Z,94445.81
2023-08-17T19:30:11.495Z,94441.19
2023-08-17T19:32:41.249Z,94437.75
2023-08-17T19:35:08.263Z,94441.66
2023-08-17T19:37:35.308Z,94434.75
2023-08-17T19:40:04.033Z,94438.50
2023-08-17T19:42:30.906Z,94443.16
2023-08-17T19:44:57.506Z,94436.94
2023-08-17T19:47:24.154Z,94435.72
2023-08-17T19:49:50.817Z,94435.19
2023-08-17T19:52:17.765Z,94437.16
2023-08-17T19:54:48.284Z,94434.28
2023-08-17T19:57:15.026Z,94439.63
2023-08-17T19:59:41.622Z,94436.63
2023-08-17T20:02:08.205Z,94443.56
2023-08-17T20:04:34.854Z,94454.19
2023-08-17T20:07:01.460Z,94450.66
2023-08-17T20:09:28.041Z,94452.53
2023-08-17T20:11:54.581Z,94457.88
2023-08-17T20:14:23.264Z,94467.53
2023-08-17T20:16:51.403Z,94465.72
2023-08-17T20:19:18.478Z,94477.03
2023-08-17T20:21:45.277Z,94470.78
2023-08-17T20:24:11.921Z,94461.41
2023-08-17T20:26:38.550Z,94468.59
2023-08-17T20:29:05.114Z,94463.84
2023-08-17T20:31:31.885Z,94474.81
2023-08-17T20:33:58.559Z,94477.91
2023-08-17T20:36:25.105Z,94467.84
2023-08-17T20:38:53.055Z,94471.81
2023-08-17T20:41:20.861Z,94467.25
2023-08-17T20:43:47.681Z,94462.72
2023-08-17T20:46:14.501Z,94454.09
2023-08-17T20:48:41.323Z,94459.41
2023-08-17T20:51:08.742Z,94468.56
2023-08-17T20:53:36.463Z,94461.59
2023-08-17T20:56:03.960Z,94460.97
2023-08-17T20:58:30.672Z,94471.69
2023-08-17T21:00:59.354Z,94468.13
2023-08-17T21:03:26.119Z,94475.38
2023-08-17T21:05:52.783Z,94475.63
2023-08-17T21:08:19.391Z,94468.13
2023-08-17T21:10:48.783Z,94469.94
2023-08-17T21:13:15.344Z,94466.75
2023-08-17T21:15:41.983Z,94463.19
2023-08-17T21:18:08.683Z,94461.97
2023-08-17T21:20:35.485Z,94459.50
2023-08-17T21:23:02.056Z,94461.72
2023-08-17T21:25:28.613Z,94457.59
2023-08-17T21:27:55.217Z,94450.28
2023-08-17T21:30:22.204Z,94450.63
2023-08-17T21:32:49.218Z,94448.16
2023-08-17T21:35:15.847Z,94452.47
2023-08-17T21:37:44.105Z,94450.91
2023-08-17T21:40:14.759Z,94449.81
2023-08-17T21:42:41.283Z,94438.94
2023-08-17T21:45:08.611Z,94438.94
2023-08-17T21:47:35.285Z,94438.94
2023-08-17T21:50:01.986Z,94438.84
2023-08-17T21:52:28.556Z,94435.41
2023-08-17T21:54:55.120Z,94427.69
2023-08-17T21:57:21.675Z,94431.88
2023-08-17T21:59:48.226Z,94429.78
2023-08-17T22:02:14.834Z,94425.19
2023-08-17T22:04:41.391Z,94423.97
2023-08-17T22:07:07.980Z,94425.63
2023-08-17T22:09:34.773Z,94433.94
2023-08-17T22:12:01.895Z,94435.41
2023-08-17T22:14:30.301Z,94435.53
2023-08-17T22:16:57.729Z,94430.28
2023-08-17T22:19:24.988Z,94431.41
2023-08-17T22:21:51.592Z,94429.50
2023-08-17T22:24:18.221Z,94417.97
2023-08-17T22:26:44.740Z,94422.72
2023-08-17T22:29:11.376Z,94432.59
2023-08-17T22:31:37.976Z,94434.34
2023-08-17T22:34:04.551Z,94426.47
2023-08-17T22:36:31.143Z,94424.34
2023-08-17T22:38:57.705Z,94429.38
2023-08-17T22:41:24.544Z,94425.19
2023-08-17T22:43:51.165Z,94424.75
2023-08-17T22:46:17.770Z,94437.25
2023-08-17T22:48:44.777Z,94423.66
2023-08-17T22:51:14.536Z,94428.41
2023-08-17T22:53:42.069Z,94423.31
2023-08-17T22:56:08.767Z,94426.75
2023-08-17T22:58:35.379Z,94423.75
2023-08-17T23:01:02.061Z,94420.13
2023-08-17T23:03:28.691Z,94426.84
2023-08-17T23:05:55.279Z,94419.00
2023-08-17T23:08:21.951Z,94429.19
2023-08-17T23:10:48.478Z,94415.31
2023-08-17T23:13:15.068Z,94412.53
2023-08-17T23:15:41.593Z,94420.72
2023-08-17T23:18:08.191Z,94416.13
2023-08-17T23:20:34.811Z,94414.38
2023-08-17T23:23:01.356Z,94418.34
2023-08-17T23:25:28.163Z,94416.84
2023-08-17T23:27:55.630Z,94423.75
2023-08-17T23:30:22.436Z,94425.25
2023-08-17T23:32:51.486Z,94419.72
2023-08-17T23:35:18.062Z,94415.03
2023-08-17T23:37:44.650Z,94418.66
2023-08-17T23:40:12.475Z,94423.06
2023-08-17T23:42:39.023Z,94425.16
2023-08-17T23:45:06.866Z,94422.66
2023-08-17T23:47:33.500Z,94423.19
2023-08-17T23:50:00.283Z,94424.41
2023-08-17T23:52:26.822Z,94423.78
2023-08-17T23:54:53.442Z,94419.47
2023-08-17T23:57:19.983Z,94424.31
2023-08-17T23:59:46.595Z,94425.19
